Home > Products > Valid Products > TAF

000
FTUS43 KGID 291727
TAFGRI
TAF
KGRI 291727Z 2918/3018 VRB06KT P6SM SCT250
     FM300800 20005KT 3SM BR SCT006
     FM301400 19009KT P6SM SCT250=



000
FTUS43 KGID 291727
TAFGRI
TAF
KGRI 291727Z 2918/3018 VRB06KT P6SM SCT250
     FM300800 20005KT 3SM BR SCT006
     FM301400 19009KT P6SM SCT250=



000
FTUS43 KGID 291727
TAFGRI
TAF
KGRI 291727Z 2918/3018 VRB06KT P6SM SCT250
     FM300800 20005KT 3SM BR SCT006
     FM301400 19009KT P6SM SCT250=



000
FTUS43 KGID 291727
TAFGRI
TAF
KGRI 291727Z 2918/3018 VRB06KT P6SM SCT250
     FM300800 20005KT 3SM BR SCT006
     FM301400 19009KT P6SM SCT250=



000
FTUS43 KGID 291553 AAC
TAFGRI
TAF AMD
KGRI 291553Z 2916/3012 01006KT P6SM SKC
      TEMPO 2916/2917 BKN004
     FM292100 09006KT P6SM SKC
     FM300100 16006KT P6SM SKC
     FM300900 18004KT 3SM BR SCT006=



000
FTUS43 KGID 291553 AAC
TAFGRI
TAF AMD
KGRI 291553Z 2916/3012 01006KT P6SM SKC
      TEMPO 2916/2917 BKN004
     FM292100 09006KT P6SM SKC
     FM300100 16006KT P6SM SKC
     FM300900 18004KT 3SM BR SCT006=



000
FTUS43 KGID 291402 AAB
TAFGRI
TAF AMD
KGRI 291402Z 2914/3012 VRB02KT 2SM BR BKN006
      TEMPO 2914/2915 1/4SM FG VV002
     FM291500 36004KT 3SM BR BKN006
     FM291600 01006KT P6SM SKC
     FM292100 09006KT P6SM SKC
     FM300100 16006KT P6SM SKC
     FM300900 18004KT 3SM BR SCT006=



000
FTUS43 KGID 291402 AAB
TAFGRI
TAF AMD
KGRI 291402Z 2914/3012 VRB02KT 2SM BR BKN006
      TEMPO 2914/2915 1/4SM FG VV002
     FM291500 36004KT 3SM BR BKN006
     FM291600 01006KT P6SM SKC
     FM292100 09006KT P6SM SKC
     FM300100 16006KT P6SM SKC
     FM300900 18004KT 3SM BR SCT006=



000
FTUS43 KGID 291302 AAA
TAFGRI
TAF AMD
KGRI 291302Z 2913/3012 VRB02KT 2SM BR BKN006
      TEMPO 2913/2914 1/4SM FG VV002
     FM291400 36004KT 3SM BR BKN006
     FM291500 01006KT P6SM SKC
     FM292100 09006KT P6SM SKC
     FM300100 16006KT P6SM SKC
     FM300900 18004KT 3SM BR SCT006=



000
FTUS43 KGID 291302 AAA
TAFGRI
TAF AMD
KGRI 291302Z 2913/3012 VRB02KT 2SM BR BKN006
      TEMPO 2913/2914 1/4SM FG VV002
     FM291400 36004KT 3SM BR BKN006
     FM291500 01006KT P6SM SKC
     FM292100 09006KT P6SM SKC
     FM300100 16006KT P6SM SKC
     FM300900 18004KT 3SM BR SCT006=



000
FTUS43 KGID 291120
TAFGRI
TAF
KGRI 291120Z 2912/3012 VRB02KT 1/4SM FG BKN002
     FM291300 VRB02KT 2SM BR BKN006
     FM291400 36004KT 5SM BR SCT007
     FM291500 01006KT P6SM SKC
     FM292100 09006KT P6SM SKC
     FM300100 16006KT P6SM SKC
     FM300900 18004KT 3SM BR SCT006=



000
FTUS43 KGID 291120
TAFGRI
TAF
KGRI 291120Z 2912/3012 VRB02KT 1/4SM FG BKN002
     FM291300 VRB02KT 2SM BR BKN006
     FM291400 36004KT 5SM BR SCT007
     FM291500 01006KT P6SM SKC
     FM292100 09006KT P6SM SKC
     FM300100 16006KT P6SM SKC
     FM300900 18004KT 3SM BR SCT006=



000
FTUS43 KGID 291120
TAFGRI
TAF
KGRI 291120Z 2912/3012 VRB02KT 1/4SM FG BKN002
     FM291300 VRB02KT 2SM BR BKN006
     FM291400 36004KT 5SM BR SCT007
     FM291500 01006KT P6SM SKC
     FM292100 09006KT P6SM SKC
     FM300100 16006KT P6SM SKC
     FM300900 18004KT 3SM BR SCT006=



000
FTUS43 KGID 291023 AAD
TAFGRI
TAF AMD
KGRI 291023Z 2910/3006 VRB02KT 1/4SM FG BKN002
     FM291300 VRB02KT 3SM BR BKN006
     FM291400 36006KT P6SM SKC
     FM292100 09006KT P6SM SKC
     FM300100 16006KT P6SM SKC=



000
FTUS43 KGID 291023 AAD
TAFGRI
TAF AMD
KGRI 291023Z 2910/3006 VRB02KT 1/4SM FG BKN002
     FM291300 VRB02KT 3SM BR BKN006
     FM291400 36006KT P6SM SKC
     FM292100 09006KT P6SM SKC
     FM300100 16006KT P6SM SKC=



000
FTUS43 KGID 290939 AAC
TAFGRI
TAF AMD
KGRI 290939Z 2910/3006 VRB02KT 1/2SM FG BKN004
     FM291400 36006KT P6SM SKC
     FM292100 09006KT P6SM SKC
     FM300100 16006KT P6SM SKC=



000
FTUS43 KGID 290852 AAB
TAFGRI
TAF AMD
KGRI 290852Z 2909/3006 VRB02KT 1/4SM FG BKN002
     FM291400 36006KT P6SM SKC
     FM292100 09006KT P6SM SKC
     FM300100 16006KT P6SM SKC=



000
FTUS43 KGID 290852 AAB
TAFGRI
TAF AMD
KGRI 290852Z 2909/3006 VRB02KT 1/4SM FG BKN002
     FM291400 36006KT P6SM SKC
     FM292100 09006KT P6SM SKC
     FM300100 16006KT P6SM SKC=



000
FTUS43 KGID 290829 AAA
TAFGRI
TAF AMD
KGRI 290829Z 2908/3006 VRB02KT 2SM BR BKN007
     FM291400 36006KT P6SM SKC
     FM292100 09006KT P6SM SKC
     FM300100 16006KT P6SM SKC=



000
FTUS43 KGID 290829 AAA
TAFGRI
TAF AMD
KGRI 290829Z 2908/3006 VRB02KT 2SM BR BKN007
     FM291400 36006KT P6SM SKC
     FM292100 09006KT P6SM SKC
     FM300100 16006KT P6SM SKC=



000
FTUS43 KGID 290829 AAA
TAFGRI
TAF AMD
KGRI 290829Z 2908/3006 VRB02KT 2SM BR BKN007
     FM291400 36006KT P6SM SKC
     FM292100 09006KT P6SM SKC
     FM300100 16006KT P6SM SKC=



000
FTUS43 KGID 290533
TAFGRI
TAF
KGRI 290533Z 2906/3006 34006KT P6SM FEW030
     FM291000 34005KT 3SM BR SCT015
     FM291400 36006KT P6SM SKC
     FM292100 09006KT P6SM SKC
     FM300100 16006KT P6SM SKC=



000
FTUS43 KGID 290533
TAFGRI
TAF
KGRI 290533Z 2906/3006 34006KT P6SM FEW030
     FM291000 34005KT 3SM BR SCT015
     FM291400 36006KT P6SM SKC
     FM292100 09006KT P6SM SKC
     FM300100 16006KT P6SM SKC=



000
FTUS43 KGID 282320
TAFGRI
TAF
KGRI 282320Z 2900/2924 35012KT P6SM BKN040
     FM290400 35008KT P6SM SCT040
     FM290800 34005KT 3SM BR SKC
     FM291400 02008KT P6SM FEW200=



000
FTUS43 KGID 282320
TAFGRI
TAF
KGRI 282320Z 2900/2924 35012KT P6SM BKN040
     FM290400 35008KT P6SM SCT040
     FM290800 34005KT 3SM BR SKC
     FM291400 02008KT P6SM FEW200=



000
FTUS43 KGID 282320
TAFGRI
TAF
KGRI 282320Z 2900/2924 35012KT P6SM BKN040
     FM290400 35008KT P6SM SCT040
     FM290800 34005KT 3SM BR SKC
     FM291400 02008KT P6SM FEW200=



000
FTUS43 KGID 282320
TAFGRI
TAF
KGRI 282320Z 2900/2924 35012KT P6SM BKN040
     FM290400 35008KT P6SM SCT040
     FM290800 34005KT 3SM BR SKC
     FM291400 02008KT P6SM FEW200=



000
FTUS43 KGID 281955 AAA
TAFGRI
TAF AMD
KGRI 281955Z 2820/2918 34015KT P6SM SCT025 BKN035
     FM290000 35011KT P6SM SCT040
     FM290200 35008KT P6SM SKC=



000
FTUS43 KGID 281955 AAA
TAFGRI
TAF AMD
KGRI 281955Z 2820/2918 34015KT P6SM SCT025 BKN035
     FM290000 35011KT P6SM SCT040
     FM290200 35008KT P6SM SKC=



000
FTUS43 KGID 281720
TAFGRI
TAF
KGRI 281720Z 2818/2918 33012KT P6SM SCT020 BKN025
     FM282100 34012KT P6SM SCT025 BKN035
     FM290200 35008KT P6SM SKC=



000
FTUS43 KGID 281720
TAFGRI
TAF
KGRI 281720Z 2818/2918 33012KT P6SM SCT020 BKN025
     FM282100 34012KT P6SM SCT025 BKN035
     FM290200 35008KT P6SM SKC=



000
FTUS43 KGID 281720
TAFGRI
TAF
KGRI 281720Z 2818/2918 33012KT P6SM SCT020 BKN025
     FM282100 34012KT P6SM SCT025 BKN035
     FM290200 35008KT P6SM SKC=



000
FTUS43 KGID 281720
TAFGRI
TAF
KGRI 281720Z 2818/2918 33012KT P6SM SCT020 BKN025
     FM282100 34012KT P6SM SCT025 BKN035
     FM290200 35008KT P6SM SKC=



000
FTUS43 KGID 281305 AAA
TAFGRI
TAF AMD
KGRI 281305Z 2813/2912 30010KT P6SM OVC012
     FM281700 32012KT P6SM SCT008 SCT120
     FM290200 02006KT P6SM SCT250=



000
FTUS43 KGID 281305 AAA
TAFGRI
TAF AMD
KGRI 281305Z 2813/2912 30010KT P6SM OVC012
     FM281700 32012KT P6SM SCT008 SCT120
     FM290200 02006KT P6SM SCT250=



000
FTUS43 KGID 281305 AAA
TAFGRI
TAF AMD
KGRI 281305Z 2813/2912 30010KT P6SM OVC012
     FM281700 32012KT P6SM SCT008 SCT120
     FM290200 02006KT P6SM SCT250=



000
FTUS43 KGID 281305 AAA
TAFGRI
TAF AMD
KGRI 281305Z 2813/2912 30010KT P6SM OVC012
     FM281700 32012KT P6SM SCT008 SCT120
     FM290200 02006KT P6SM SCT250=



000
FTUS43 KGID 281130
TAFGRI
TAF
KGRI 281130Z 2812/2912 30010KT 6SM BR BKN005
     FM281500 32012KT P6SM SCT008 SCT120
     FM290200 02006KT P6SM SCT250=



000
FTUS43 KGID 281130
TAFGRI
TAF
KGRI 281130Z 2812/2912 30010KT 6SM BR BKN005
     FM281500 32012KT P6SM SCT008 SCT120
     FM290200 02006KT P6SM SCT250=



000
FTUS43 KGID 281130
TAFGRI
TAF
KGRI 281130Z 2812/2912 30010KT 6SM BR BKN005
     FM281500 32012KT P6SM SCT008 SCT120
     FM290200 02006KT P6SM SCT250=



000
FTUS43 KGID 281130
TAFGRI
TAF
KGRI 281130Z 2812/2912 30010KT 6SM BR BKN005
     FM281500 32012KT P6SM SCT008 SCT120
     FM290200 02006KT P6SM SCT250=



000
FTUS43 KGID 281039 AAA
TAFGRI
TAF AMD
KGRI 281039Z 2811/2906 28010KT P6SM BKN006
     FM281400 32012KT P6SM SCT008 SCT120
     FM290200 02006KT P6SM SCT250=



000
FTUS43 KGID 281039 AAA
TAFGRI
TAF AMD
KGRI 281039Z 2811/2906 28010KT P6SM BKN006
     FM281400 32012KT P6SM SCT008 SCT120
     FM290200 02006KT P6SM SCT250=



000
FTUS43 KGID 281039 AAA
TAFGRI
TAF AMD
KGRI 281039Z 2811/2906 28010KT P6SM BKN006
     FM281400 32012KT P6SM SCT008 SCT120
     FM290200 02006KT P6SM SCT250=



000
FTUS43 KGID 281039 AAA
TAFGRI
TAF AMD
KGRI 281039Z 2811/2906 28010KT P6SM BKN006
     FM281400 32012KT P6SM SCT008 SCT120
     FM290200 02006KT P6SM SCT250=



000
FTUS43 KGID 280520
TAFGRI
TAF
KGRI 280520Z 2806/2906 22012G20KT P6SM VCTS SCT020CB BKN110
     FM280800 28010KT P6SM SCT012 BKN080
     FM281200 32012KT P6SM SCT020 SCT120
     FM290200 02006KT P6SM SCT250=



000
FTUS43 KGID 280520
TAFGRI
TAF
KGRI 280520Z 2806/2906 22012G20KT P6SM VCTS SCT020CB BKN110
     FM280800 28010KT P6SM SCT012 BKN080
     FM281200 32012KT P6SM SCT020 SCT120
     FM290200 02006KT P6SM SCT250=



000
FTUS43 KGID 280520
TAFGRI
TAF
KGRI 280520Z 2806/2906 22012G20KT P6SM VCTS SCT020CB BKN110
     FM280800 28010KT P6SM SCT012 BKN080
     FM281200 32012KT P6SM SCT020 SCT120
     FM290200 02006KT P6SM SCT250=



000
FTUS43 KGID 280520
TAFGRI
TAF
KGRI 280520Z 2806/2906 22012G20KT P6SM VCTS SCT020CB BKN110
     FM280800 28010KT P6SM SCT012 BKN080
     FM281200 32012KT P6SM SCT020 SCT120
     FM290200 02006KT P6SM SCT250=



000
FTUS43 KGID 280101 AAA
TAFGRI
TAF AMD
KGRI 280101Z 2801/2824 16015G22KT P6SM VCTS SCT040CB
     FM280500 18015G22KT P6SM VCTS SCT020CB BKN110
     FM280700 31011KT P6SM SCT010
     FM281400 32012G18KT P6SM SCT020 SCT120=



000
FTUS43 KGID 280101 AAA
TAFGRI
TAF AMD
KGRI 280101Z 2801/2824 16015G22KT P6SM VCTS SCT040CB
     FM280500 18015G22KT P6SM VCTS SCT020CB BKN110
     FM280700 31011KT P6SM SCT010
     FM281400 32012G18KT P6SM SCT020 SCT120=



000
FTUS43 KGID 272334
TAFGRI
TAF
KGRI 272334Z 2800/2824 13015G22KT P6SM VCTS SCT040CB
     FM280500 18015G22KT P6SM VCTS SCT020CB BKN110
     FM280700 31011KT 6SM BR SCT010
     FM281400 32012G18KT P6SM SCT020 SCT120=



000
FTUS43 KGID 272334
TAFGRI
TAF
KGRI 272334Z 2800/2824 13015G22KT P6SM VCTS SCT040CB
     FM280500 18015G22KT P6SM VCTS SCT020CB BKN110
     FM280700 31011KT 6SM BR SCT010
     FM281400 32012G18KT P6SM SCT020 SCT120=



000
FTUS43 KGID 272334
TAFGRI
TAF
KGRI 272334Z 2800/2824 13015G22KT P6SM VCTS SCT040CB
     FM280500 18015G22KT P6SM VCTS SCT020CB BKN110
     FM280700 31011KT 6SM BR SCT010
     FM281400 32012G18KT P6SM SCT020 SCT120=



000
FTUS43 KGID 272334
TAFGRI
TAF
KGRI 272334Z 2800/2824 13015G22KT P6SM VCTS SCT040CB
     FM280500 18015G22KT P6SM VCTS SCT020CB BKN110
     FM280700 31011KT 6SM BR SCT010
     FM281400 32012G18KT P6SM SCT020 SCT120=



000
FTUS43 KGID 271727
TAFGRI
TAF
KGRI 271727Z 2718/2818 15014G23KT P6SM FEW010 BKN250
     FM272300 16013G19KT P6SM VCTS SCT040CB
     FM280300 22012KT P6SM FEW020 BKN110
     FM280800 31010KT 6SM BR SCT010
     FM281400 32012G18KT P6SM SCT020 SCT120=



000
FTUS43 KGID 271727
TAFGRI
TAF
KGRI 271727Z 2718/2818 15014G23KT P6SM FEW010 BKN250
     FM272300 16013G19KT P6SM VCTS SCT040CB
     FM280300 22012KT P6SM FEW020 BKN110
     FM280800 31010KT 6SM BR SCT010
     FM281400 32012G18KT P6SM SCT020 SCT120=



000
FTUS43 KGID 271608 AAC
TAFGRI
TAF AMD
KGRI 271608Z 2716/2812 14012G20KT P6SM FEW010 BKN250
     FM272300 16016G26KT P6SM VCTS SCT040CB
     FM280200 18012KT P6SM VCTS BKN050CB
     FM280800 30008KT P6SM BKN120=



000
FTUS43 KGID 271608 AAC
TAFGRI
TAF AMD
KGRI 271608Z 2716/2812 14012G20KT P6SM FEW010 BKN250
     FM272300 16016G26KT P6SM VCTS SCT040CB
     FM280200 18012KT P6SM VCTS BKN050CB
     FM280800 30008KT P6SM BKN120=



000
FTUS43 KGID 271402 AAB
TAFGRI
TAF AMD
KGRI 271402Z 2714/2812 12008KT P6SM BKN005
      TEMPO 2715/2716 SCT005
     FM271600 16014G24KT P6SM BKN250
     FM272300 16016G26KT P6SM VCTS SCT040CB
     FM280200 18012KT P6SM VCTS BKN050CB
     FM280800 30008KT P6SM BKN120=



000
FTUS43 KGID 271402 AAB
TAFGRI
TAF AMD
KGRI 271402Z 2714/2812 12008KT P6SM BKN005
      TEMPO 2715/2716 SCT005
     FM271600 16014G24KT P6SM BKN250
     FM272300 16016G26KT P6SM VCTS SCT040CB
     FM280200 18012KT P6SM VCTS BKN050CB
     FM280800 30008KT P6SM BKN120=



000
FTUS43 KGID 271402 AAB
TAFGRI
TAF AMD
KGRI 271402Z 2714/2812 12008KT P6SM BKN005
      TEMPO 2715/2716 SCT005
     FM271600 16014G24KT P6SM BKN250
     FM272300 16016G26KT P6SM VCTS SCT040CB
     FM280200 18012KT P6SM VCTS BKN050CB
     FM280800 30008KT P6SM BKN120=



000
FTUS43 KGID 271216 AAA
TAFGRI
TAF AMD
KGRI 271216Z 2712/2812 12008KT 6SM BR BKN006 WS008/22040KT
      TEMPO 2712/2714 BKN004
     FM271400 14010KT P6SM SCT008 SCT120
     FM271600 16014G24KT P6SM BKN250
     FM272300 16016G26KT P6SM VCTS SCT040CB
     FM280200 18012KT P6SM VCTS BKN050CB
     FM280800 30008KT P6SM BKN120=



000
FTUS43 KGID 271216 AAA
TAFGRI
TAF AMD
KGRI 271216Z 2712/2812 12008KT 6SM BR BKN006 WS008/22040KT
      TEMPO 2712/2714 BKN004
     FM271400 14010KT P6SM SCT008 SCT120
     FM271600 16014G24KT P6SM BKN250
     FM272300 16016G26KT P6SM VCTS SCT040CB
     FM280200 18012KT P6SM VCTS BKN050CB
     FM280800 30008KT P6SM BKN120=



000
FTUS43 KGID 271216 AAA
TAFGRI
TAF AMD
KGRI 271216Z 2712/2812 12008KT 6SM BR BKN006 WS008/22040KT
      TEMPO 2712/2714 BKN004
     FM271400 14010KT P6SM SCT008 SCT120
     FM271600 16014G24KT P6SM BKN250
     FM272300 16016G26KT P6SM VCTS SCT040CB
     FM280200 18012KT P6SM VCTS BKN050CB
     FM280800 30008KT P6SM BKN120=



000
FTUS43 KGID 271125
TAFGRI
TAF
KGRI 271125Z 2712/2812 14010KT 6SM BR BKN006 WS008/22040KT
     FM271400 14010KT P6SM SCT008 SCT120
     FM271600 16014G24KT P6SM BKN250
     FM272300 16016G26KT P6SM VCTS SCT040CB
     FM280200 18012KT P6SM VCTS BKN050CB
     FM280800 30008KT P6SM BKN120=



000
FTUS43 KGID 271125
TAFGRI
TAF
KGRI 271125Z 2712/2812 14010KT 6SM BR BKN006 WS008/22040KT
     FM271400 14010KT P6SM SCT008 SCT120
     FM271600 16014G24KT P6SM BKN250
     FM272300 16016G26KT P6SM VCTS SCT040CB
     FM280200 18012KT P6SM VCTS BKN050CB
     FM280800 30008KT P6SM BKN120=



000
FTUS43 KGID 271125
TAFGRI
TAF
KGRI 271125Z 2712/2812 14010KT 6SM BR BKN006 WS008/22040KT
     FM271400 14010KT P6SM SCT008 SCT120
     FM271600 16014G24KT P6SM BKN250
     FM272300 16016G26KT P6SM VCTS SCT040CB
     FM280200 18012KT P6SM VCTS BKN050CB
     FM280800 30008KT P6SM BKN120=



000
FTUS43 KGID 271125
TAFGRI
TAF
KGRI 271125Z 2712/2812 14010KT 6SM BR BKN006 WS008/22040KT
     FM271400 14010KT P6SM SCT008 SCT120
     FM271600 16014G24KT P6SM BKN250
     FM272300 16016G26KT P6SM VCTS SCT040CB
     FM280200 18012KT P6SM VCTS BKN050CB
     FM280800 30008KT P6SM BKN120=



000
FTUS43 KGID 271057 AAA
TAFGRI
TAF AMD
KGRI 271057Z 2711/2806 14010KT 6SM BR BKN006 WS008/22040KT
     FM271400 14010KT P6SM SCT008 SCT120
     FM271600 16014G24KT P6SM BKN250
     FM272300 16016G26KT P6SM VCTS SCT040CB
     FM280200 18012KT P6SM VCTS BKN050CB=



000
FTUS43 KGID 271057 AAA
TAFGRI
TAF AMD
KGRI 271057Z 2711/2806 14010KT 6SM BR BKN006 WS008/22040KT
     FM271400 14010KT P6SM SCT008 SCT120
     FM271600 16014G24KT P6SM BKN250
     FM272300 16016G26KT P6SM VCTS SCT040CB
     FM280200 18012KT P6SM VCTS BKN050CB=



000
FTUS43 KGID 271057 AAA
TAFGRI
TAF AMD
KGRI 271057Z 2711/2806 14010KT 6SM BR BKN006 WS008/22040KT
     FM271400 14010KT P6SM SCT008 SCT120
     FM271600 16014G24KT P6SM BKN250
     FM272300 16016G26KT P6SM VCTS SCT040CB
     FM280200 18012KT P6SM VCTS BKN050CB=



000
FTUS43 KGID 270535
TAFGRI
TAF
KGRI 270535Z 2706/2806 14010KT P6SM SCT120 WS008/22040KT
     FM271300 14010KT P6SM SCT120
     FM271600 16014G24KT P6SM BKN250
     FM272300 16016G26KT P6SM VCTS SCT040CB
     FM280200 18012KT P6SM VCTS BKN050CB=



000
FTUS43 KGID 270535
TAFGRI
TAF
KGRI 270535Z 2706/2806 14010KT P6SM SCT120 WS008/22040KT
     FM271300 14010KT P6SM SCT120
     FM271600 16014G24KT P6SM BKN250
     FM272300 16016G26KT P6SM VCTS SCT040CB
     FM280200 18012KT P6SM VCTS BKN050CB=



000
FTUS43 KGID 262343 CCA
TAFGRI
TAF COR
KGRI 262343Z 2700/2724 14010KT P6SM BKN250
     FM270600 14010KT P6SM SCT120 WS008/22040KT
     FM271300 14010KT P6SM SCT120
     FM271600 16015G22KT P6SM BKN250
     FM272300 16017G25KT P6SM VCTS SCT040CB=



000
FTUS43 KGID 262343 CCA
TAFGRI
TAF COR
KGRI 262343Z 2700/2724 14010KT P6SM BKN250
     FM270600 14010KT P6SM SCT120 WS008/22040KT
     FM271300 14010KT P6SM SCT120
     FM271600 16015G22KT P6SM BKN250
     FM272300 16017G25KT P6SM VCTS SCT040CB=



000
FTUS43 KGID 262343 CCA
TAFGRI
TAF COR
KGRI 262343Z 2700/2724 14010KT P6SM BKN250
     FM270600 14010KT P6SM SCT120 WS008/22040KT
     FM271300 14010KT P6SM SCT120
     FM271600 16015G22KT P6SM BKN250
     FM272300 16017G25KT P6SM VCTS SCT040CB=



000
FTUS43 KGID 262343 CCA
TAFGRI
TAF COR
KGRI 262343Z 2700/2724 14010KT P6SM BKN250
     FM270600 14010KT P6SM SCT120 WS008/22040KT
     FM271300 14010KT P6SM SCT120
     FM271600 16015G22KT P6SM BKN250
     FM272300 16017G25KT P6SM VCTS SCT040CB=



000
FTUS43 KGID 262340
TAFGRI
TAF
KGRI 262340Z 2700/2724 14010KT P6SM SCT250
     FM270600 14010KT P6SM SCT120 WS008/22040KT
     FM271300 14010KT P6SM SCT120
     FM271600 16015G22KT P6SM BKN250
     FM272300 16017G25KT P6SM VCTS SCT040CB=



000
FTUS43 KGID 262340
TAFGRI
TAF
KGRI 262340Z 2700/2724 14010KT P6SM SCT250
     FM270600 14010KT P6SM SCT120 WS008/22040KT
     FM271300 14010KT P6SM SCT120
     FM271600 16015G22KT P6SM BKN250
     FM272300 16017G25KT P6SM VCTS SCT040CB=



000
FTUS43 KGID 262340
TAFGRI
TAF
KGRI 262340Z 2700/2724 14010KT P6SM SCT250
     FM270600 14010KT P6SM SCT120 WS008/22040KT
     FM271300 14010KT P6SM SCT120
     FM271600 16015G22KT P6SM BKN250
     FM272300 16017G25KT P6SM VCTS SCT040CB=



000
FTUS43 KGID 262340
TAFGRI
TAF
KGRI 262340Z 2700/2724 14010KT P6SM SCT250
     FM270600 14010KT P6SM SCT120 WS008/22040KT
     FM271300 14010KT P6SM SCT120
     FM271600 16015G22KT P6SM BKN250
     FM272300 16017G25KT P6SM VCTS SCT040CB=



    US Dept of Commerce
    National Oceanic and Atmospheric Administration
    National Weather Service
    1325 East West Highway
    Silver Spring, MD 20910
    Page Author: NWS Internet Services Team
Disclaimer
Information Quality
Credits
Glossary
Privacy Policy
Freedom of Information Act (FOIA)
About Us
Career Opportunities